Report METAR

 

KSJC - San Jose, California, USA
Distance from station: NE 14km
Dati ricevuti: 18/06/2024 02:53
Few Clouds
Few Clouds
 Vento da NNO
Vento: NNO 28 km/h
Temperatura: 27°C
P.to Rugiada: 7°C
Umidità: 28%
Barometro: 1009.5 hPa
Nuvole: Few Clouds
Visibility: 16 km
Cloud details: Few Clouds 2134 m
2024/06/18 00:53 KSJC 180053Z 34015KT 10SM FEW070 27/07 A2981 RMK AO2 PK WND 35026/0015 SLP093 T02670067 $
KNUQ - Moffett Nas/Mtn, California, USA
Distance from station: N 14km
Dati ricevuti: 18/06/2024 03:10
Sereno
Sereno
 Vento da NNO
Vento: NNO 20 km/h, Raffica: 30 km/h
Temperatura: 26°C
P.to Rugiada: 4°C
Umidità: 24%
Barometro: 1009.5 hPa
Nuvole: Sereno
Visibility: 16 km
2024/06/18 01:10 KNUQ 180110Z AUTO 34011G16KT 10SM CLR 26/04 A2981 RMK AO2
 
KPAO - Palo Alto, California, USA
Distance from station: NNO 23km
Dati ricevuti: 18/06/2024 02:47
Sereno
Sereno
 Vento da NO
Vento: NO 28 km/h
Temperatura: 26°C
P.to Rugiada: 4°C
Umidità: 24%
Barometro: 1009.8 hPa
Nuvole: Sereno
Visibility: 16 km
2024/06/18 00:47 KPAO 180047Z 31015KT 10SM SKC 26/04 A2982
KRHV - San Jose/Reid, California, USA
Distance from station: ENE 19km
Dati ricevuti: 18/06/2024 02:58
Sereno
Sereno
 Vento da ONO
Vento: ONO 30 km/h, Raffica: 43 km/h
Temperatura: 25°C
P.to Rugiada: 4°C
Umidità: 26%
Barometro: 1009.8 hPa
Nuvole: Sereno
Visibility: 16 km
2024/06/18 00:58 KRHV 180058Z 30016G23KT 10SM SKC 25/04 A2982
 
KOAK - Oakland, California, USA
Distance from station: NNO 50km
Dati ricevuti: 18/06/2024 02:53
Few Clouds
Few Clouds
 Vento da O
Vento: O 20 km/h
Temperatura: 24°C
P.to Rugiada: 8°C
Umidità: 36%
Barometro: 1009.8 hPa
Nuvole: Few Clouds
Visibility: 16 km
Cloud details: Few Clouds 732 m
Few Clouds 6096 m
2024/06/18 00:53 KOAK 180053Z 28011KT 10SM FEW024 FEW200 24/08 A2982 RMK AO2 SLP099 T02440078
KSQL - San Carlos Airpo, California, USA
Distance from station: NO 34km
Dati ricevuti: 18/06/2024 02:47
Sereno
Sereno
 Vento da ONO
Vento: ONO 33 km/h
Temperatura: 25°C
P.to Rugiada: 1°C
Umidità: 21%
Barometro: 1010.2 hPa
Nuvole: Sereno
Visibility: 16 km
2024/06/18 00:47 KSQL 180047Z 29018KT 10SM CLR 25/01 A2983
 
KSFO - San Francisco, California, USA
Distance from station: NO 49km
Dati ricevuti: 18/06/2024 02:56
Few Clouds
Few Clouds
 Vento da O
Vento: O 31 km/h
Temperatura: 22°C
P.to Rugiada: 3°C
Umidità: 29%
Barometro: 1010.2 hPa
Nuvole: Few Clouds
Visibility: 16 km
Cloud details: Few Clouds 5486 m
2024/06/18 00:56 KSFO 180056Z 28017KT 10SM FEW180 22/03 A2983 RMK AO2 PK WND 27027/0002 SLP101 T02170033
KE16 - San Martin, California, USA
Distance from station: ESE 43km
Dati ricevuti: 18/06/2024 02:55
Sereno
Sereno
 Vento da NNO
Vento: NNO 26 km/h, Raffica: 46 km/h
Temperatura: 26°C
P.to Rugiada: 2°C
Umidità: 21%
Barometro: 1009.5 hPa
Nuvole: Sereno
Visibility: 16 km
2024/06/18 00:55 KE16 180055Z AUTO 33014G25KT 10SM CLR 26/02 A2981 RMK AO2 PWINO PNO
 
KWVI - Watsonville, California, USA
Distance from station: SSE 44km
Dati ricevuti: 18/06/2024 02:53
Sereno
Sereno
 Vento da SE
Vento: SE 13 km/h
Temperatura: 26°C
P.to Rugiada: 8°C
Umidità: 32%
Barometro: 1009.1 hPa
Nuvole: Sereno
Visibility: 16 km
2024/06/18 00:53 KWVI 180053Z AUTO 14007KT 10SM CLR 26/08 A2980 RMK AO2 SLP090 T02610083
KHAF - Half Moon Bay, California, USA
Distance from station: ONO 50km
Dati ricevuti: 18/06/2024 03:15
Sereno
Sereno
 Vento da NO
Vento: NO 28 km/h
Temperatura: 16°C
P.to Rugiada: 7°C
Umidità: 55%
Barometro: 1011.2 hPa
Nuvole: Sereno
Visibility: 14 km
2024/06/18 01:15 KHAF 180115Z AUTO 32015KT 9SM CLR 16/07 A2986 RMK AO2
 
KHWD - Hayward, California, USA
Distance from station: N 44km
Dati ricevuti: 18/06/2024 02:54
Sereno
Sereno
 Vento da O
Vento: O 24 km/h
Temperatura: 23°C
P.to Rugiada: 8°C
Umidità: 38%
Barometro: 1009.8 hPa
Nuvole: Sereno
Visibility: 16 km
2024/06/18 00:54 KHWD 180054Z 28013KT 10SM CLR 23/08 A2982 RMK AO2 SLP106 T02280083
KLVK - Livermore, California, USA
Distance from station: NNE 51km
Dati ricevuti: 18/06/2024 02:53
Pioviggine, Sereno
Pioviggine, Sereno
 Vento da O
Vento: O 17 km/h
Temperatura: 27°C
P.to Rugiada: 4°C
Umidità: 23%
Barometro: 1008.8 hPa
Summary: Pioviggine
Nuvole: Sereno
Visibility: 16 km
2024/06/18 00:53 KLVK 180053Z 28009KT 10SM -RA CLR 27/04 A2979 RMK AO2 RAB13 SLP085 P0000 T02720039